sensor_id;sensor_type;location;lat;lon;timestamp;temperature;humidity
13673;DHT22;6909;52.202;9.876;2023-05-15T00:00:17;10.50;1.00
13673;DHT22;6909;52.202;9.876;2023-05-15T00:02:44;10.40;1.00
13673;DHT22;6909;52.202;9.876;2023-05-15T00:05:11;10.30;1.00
13673;DHT22;6909;52.202;9.876;2023-05-15T00:07:39;10.20;1.00
13673;DHT22;6909;52.202;9.876;2023-05-15T00:10:07;10.10;1.00
13673;DHT22;6909;52.202;9.876;2023-05-15T00:12:35;10.00;1.00
13673;DHT22;6909;52.202;9.876;2023-05-15T00:15:02;10.00;36.10
13673;DHT22;6909;52.202;9.876;2023-05-15T00:17:29;9.90;1.00
13673;DHT22;6909;52.202;9.876;2023-05-15T00:19:55;9.80;1.00
13673;DHT22;6909;52.202;9.876;2023-05-15T00:22:23;9.80;1.00
13673;DHT22;6909;52.202;9.876;2023-05-15T00:24:50;9.80;99.90
13673;DHT22;6909;52.202;9.876;2023-05-15T00:27:17;9.70;1.00
13673;DHT22;6909;52.202;9.876;2023-05-15T00:29:45;9.80;19.30
13673;DHT22;6909;52.202;9.876;2023-05-15T00:32:11;9.90;99.90
13673;DHT22;6909;52.202;9.876;2023-05-15T00:34:38;9.90;1.00
13673;DHT22;6909;52.202;9.876;2023-05-15T00:37:05;9.90;1.00
13673;DHT22;6909;52.202;9.876;2023-05-15T00:39:32;9.80;1.00
13673;DHT22;6909;52.202;9.876;2023-05-15T00:41:59;9.70;1.00
13673;DHT22;6909;52.202;9.876;2023-05-15T00:44:27;9.60;1.00
13673;DHT22;6909;52.202;9.876;2023-05-15T00:46:56;9.60;99.90
13673;DHT22;6909;52.202;9.876;2023-05-15T00:49:23;9.60;1.00
13673;DHT22;6909;52.202;9.876;2023-05-15T00:51:52;9.60;99.90
13673;DHT22;6909;52.202;9.876;2023-05-15T00:54:18;9.70;1.00
13673;DHT22;6909;52.202;9.876;2023-05-15T00:56:46;9.70;99.90
13673;DHT22;6909;52.202;9.876;2023-05-15T00:59:13;9.70;1.00
13673;DHT22;6909;52.202;9.876;2023-05-15T01:01:40;9.80;1.00
13673;DHT22;6909;52.202;9.876;2023-05-15T01:04:11;9.80;1.00
13673;DHT22;6909;52.202;9.876;2023-05-15T01:06:37;9.90;1.00
13673;DHT22;6909;52.202;9.876;2023-05-15T01:09:04;9.90;1.00
13673;DHT22;6909;52.202;9.876;2023-05-15T01:11:34;10.00;1.00
13673;DHT22;6909;52.202;9.876;2023-05-15T01:14:04;10.00;1.00
13673;DHT22;6909;52.202;9.876;2023-05-15T01:16:31;10.00;1.00
13673;DHT22;6909;52.202;9.876;2023-05-15T01:18:58;10.00;1.00
13673;DHT22;6909;52.202;9.876;2023-05-15T01:21:56;10.10;1.00
13673;DHT22;6909;52.202;9.876;2023-05-15T01:24:42;10.10;1.00
13673;DHT22;6909;52.202;9.876;2023-05-15T01:27:18;10.20;1.00
13673;DHT22;6909;52.202;9.876;2023-05-15T01:29:53;10.20;99.90
13673;DHT22;6909;52.202;9.876;2023-05-15T01:32:23;10.10;99.90
13673;DHT22;6909;52.202;9.876;2023-05-15T01:34:59;10.20;99.90
13673;DHT22;6909;52.202;9.876;2023-05-15T01:37:28;10.10;24.50
13673;DHT22;6909;52.202;9.876;2023-05-15T01:39:59;10.10;99.90
13673;DHT22;6909;52.202;9.876;2023-05-15T01:42:33;10.10;1.00
13673;DHT22;6909;52.202;9.876;2023-05-15T01:45:03;10.10;1.00
13673;DHT22;6909;52.202;9.876;2023-05-15T01:47:34;10.00;1.00
13673;DHT22;6909;52.202;9.876;2023-05-15T01:50:03;9.90;1.00
13673;DHT22;6909;52.202;9.876;2023-05-15T01:52:33;9.80;1.00
13673;DHT22;6909;52.202;9.876;2023-05-15T01:55:01;9.70;99.90
13673;DHT22;6909;52.202;9.876;2023-05-15T01:57:30;9.70;99.90
13673;DHT22;6909;52.202;9.876;2023-05-15T01:59:58;9.70;1.00
13673;DHT22;6909;52.202;9.876;2023-05-15T02:02:27;9.70;1.00
13673;DHT22;6909;52.202;9.876;2023-05-15T02:04:55;9.60;1.00
13673;DHT22;6909;52.202;9.876;2023-05-15T02:07:23;9.60;1.00
13673;DHT22;6909;52.202;9.876;2023-05-15T02:09:51;9.60;1.00
13673;DHT22;6909;52.202;9.876;2023-05-15T02:12:18;9.60;99.90
13673;DHT22;6909;52.202;9.876;2023-05-15T02:14:48;9.70;99.90
13673;DHT22;6909;52.202;9.876;2023-05-15T02:17:15;9.60;1.00
13673;DHT22;6909;52.202;9.876;2023-05-15T02:19:42;9.70;1.00
13673;DHT22;6909;52.202;9.876;2023-05-15T02:22:09;9.80;99.90
13673;DHT22;6909;52.202;9.876;2023-05-15T02:24:36;9.80;99.90
13673;DHT22;6909;52.202;9.876;2023-05-15T02:27:07;9.80;1.00
13673;DHT22;6909;52.202;9.876;2023-05-15T02:29:46;9.80;99.90
13673;DHT22;6909;52.202;9.876;2023-05-15T02:32:24;9.70;10.70
13673;DHT22;6909;52.202;9.876;2023-05-15T02:35:01;9.70;1.00
13673;DHT22;6909;52.202;9.876;2023-05-15T02:37:31;9.70;99.90
13673;DHT22;6909;52.202;9.876;2023-05-15T02:40:00;9.70;99.90
13673;DHT22;6909;52.202;9.876;2023-05-15T02:42:32;9.70;99.90
13673;DHT22;6909;52.202;9.876;2023-05-15T02:45:00;9.70;99.90
13673;DHT22;6909;52.202;9.876;2023-05-15T02:47:29;9.70;1.00
13673;DHT22;6909;52.202;9.876;2023-05-15T02:49:56;9.70;1.00
13673;DHT22;6909;52.202;9.876;2023-05-15T02:52:23;9.80;1.00
13673;DHT22;6909;52.202;9.876;2023-05-15T02:54:50;9.70;99.90
13673;DHT22;6909;52.202;9.876;2023-05-15T02:57:16;9.70;1.00
13673;DHT22;6909;52.202;9.876;2023-05-15T02:59:43;9.70;1.00
13673;DHT22;6909;52.202;9.876;2023-05-15T03:02:10;9.60;1.00
13673;DHT22;6909;52.202;9.876;2023-05-15T03:04:38;9.70;1.00
13673;DHT22;6909;52.202;9.876;2023-05-15T03:07:05;9.70;1.00
13673;DHT22;6909;52.202;9.876;2023-05-15T03:09:31;9.70;37.30
13673;DHT22;6909;52.202;9.876;2023-05-15T03:11:58;9.70;99.90
13673;DHT22;6909;52.202;9.876;2023-05-15T03:14:25;9.70;61.60
13673;DHT22;6909;52.202;9.876;2023-05-15T03:16:51;9.70;99.90
13673;DHT22;6909;52.202;9.876;2023-05-15T03:19:18;9.70;99.90
13673;DHT22;6909;52.202;9.876;2023-05-15T03:21:46;9.80;99.90
13673;DHT22;6909;52.202;9.876;2023-05-15T03:24:12;9.80;99.90
13673;DHT22;6909;52.202;9.876;2023-05-15T03:26:39;9.80;99.90
13673;DHT22;6909;52.202;9.876;2023-05-15T03:29:07;9.80;99.90
13673;DHT22;6909;52.202;9.876;2023-05-15T03:31:33;9.90;99.90
13673;DHT22;6909;52.202;9.876;2023-05-15T03:34:00;9.90;1.00
13673;DHT22;6909;52.202;9.876;2023-05-15T03:36:27;9.90;1.00
13673;DHT22;6909;52.202;9.876;2023-05-15T03:38:55;10.00;1.00
13673;DHT22;6909;52.202;9.876;2023-05-15T03:41:21;10.00;99.90
13673;DHT22;6909;52.202;9.876;2023-05-15T03:43:48;9.90;99.90
13673;DHT22;6909;52.202;9.876;2023-05-15T03:46:15;10.10;1.00
13673;DHT22;6909;52.202;9.876;2023-05-15T03:48:41;10.00;1.00
13673;DHT22;6909;52.202;9.876;2023-05-15T03:51:08;10.10;1.00
13673;DHT22;6909;52.202;9.876;2023-05-15T03:53:35;10.20;1.00
13673;DHT22;6909;52.202;9.876;2023-05-15T03:56:03;10.20;1.00
13673;DHT22;6909;52.202;9.876;2023-05-15T03:58:30;10.30;99.90
13673;DHT22;6909;52.202;9.876;2023-05-15T04:00:57;10.50;99.90
13673;DHT22;6909;52.202;9.876;2023-05-15T04:03:24;10.50;99.90
13673;DHT22;6909;52.202;9.876;2023-05-15T04:05:50;10.50;3.60
13673;DHT22;6909;52.202;9.876;2023-05-15T04:08:17;10.50;1.00
13673;DHT22;6909;52.202;9.876;2023-05-15T04:10:43;10.50;98.10
13673;DHT22;6909;52.202;9.876;2023-05-15T04:13:11;10.60;99.90
13673;DHT22;6909;52.202;9.876;2023-05-15T04:15:39;10.70;1.00
13673;DHT22;6909;52.202;9.876;2023-05-15T04:18:06;10.70;1.00
13673;DHT22;6909;52.202;9.876;2023-05-15T04:20:33;10.90;1.00
13673;DHT22;6909;52.202;9.876;2023-05-15T04:23:00;10.90;99.90
13673;DHT22;6909;52.202;9.876;2023-05-15T04:25:28;11.00;1.00
13673;DHT22;6909;52.202;9.876;2023-05-15T04:27:55;11.20;1.00
13673;DHT22;6909;52.202;9.876;2023-05-15T04:30:23;11.20;99.90
13673;DHT22;6909;52.202;9.876;2023-05-15T04:32:49;11.30;63.00
13673;DHT22;6909;52.202;9.876;2023-05-15T04:35:17;11.30;99.90
13673;DHT22;6909;52.202;9.876;2023-05-15T04:37:43;11.40;17.20
13673;DHT22;6909;52.202;9.876;2023-05-15T04:40:11;11.50;1.00
13673;DHT22;6909;52.202;9.876;2023-05-15T04:42:39;11.70;1.00
13673;DHT22;6909;52.202;9.876;2023-05-15T04:45:07;12.10;99.90
13673;DHT22;6909;52.202;9.876;2023-05-15T04:47:35;13.00;1.00
13673;DHT22;6909;52.202;9.876;2023-05-15T04:50:02;14.00;1.00
13673;DHT22;6909;52.202;9.876;2023-05-15T04:52:29;14.90;99.90
13673;DHT22;6909;52.202;9.876;2023-05-15T04:54:56;16.00;1.00
13673;DHT22;6909;52.202;9.876;2023-05-15T04:57:23;16.80;1.00
13673;DHT22;6909;52.202;9.876;2023-05-15T04:59:50;17.10;99.90
13673;DHT22;6909;52.202;9.876;2023-05-15T05:02:19;18.20;99.90
13673;DHT22;6909;52.202;9.876;2023-05-15T05:04:48;18.90;1.00
13673;DHT22;6909;52.202;9.876;2023-05-15T05:07:14;19.50;1.00
13673;DHT22;6909;52.202;9.876;2023-05-15T05:09:41;19.90;99.90
13673;DHT22;6909;52.202;9.876;2023-05-15T05:12:09;20.30;1.00
13673;DHT22;6909;52.202;9.876;2023-05-15T05:14:35;20.40;1.00
13673;DHT22;6909;52.202;9.876;2023-05-15T05:17:04;21.10;99.90
13673;DHT22;6909;52.202;9.876;2023-05-15T05:19:31;21.40;1.00
13673;DHT22;6909;52.202;9.876;2023-05-15T05:21:59;21.60;1.00
13673;DHT22;6909;52.202;9.876;2023-05-15T05:24:29;22.20;1.00
13673;DHT22;6909;52.202;9.876;2023-05-15T05:26:56;24.00;1.00
13673;DHT22;6909;52.202;9.876;2023-05-15T05:29:23;24.60;99.90
13673;DHT22;6909;52.202;9.876;2023-05-15T05:31:50;25.10;1.00
13673;DHT22;6909;52.202;9.876;2023-05-15T05:34:17;24.40;99.90
13673;DHT22;6909;52.202;9.876;2023-05-15T05:36:44;25.50;99.90
13673;DHT22;6909;52.202;9.876;2023-05-15T05:39:12;25.00;1.00
13673;DHT22;6909;52.202;9.876;2023-05-15T05:41:38;25.90;1.00
13673;DHT22;6909;52.202;9.876;2023-05-15T05:44:05;26.40;1.00
13673;DHT22;6909;52.202;9.876;2023-05-15T05:46:32;27.10;99.90
13673;DHT22;6909;52.202;9.876;2023-05-15T05:48:58;27.60;67.70
13673;DHT22;6909;52.202;9.876;2023-05-15T05:51:25;26.90;1.00
13673;DHT22;6909;52.202;9.876;2023-05-15T05:53:52;26.70;1.00
13673;DHT22;6909;52.202;9.876;2023-05-15T05:56:20;26.70;99.90
13673;DHT22;6909;52.202;9.876;2023-05-15T05:58:47;26.40;99.90
13673;DHT22;6909;52.202;9.876;2023-05-15T06:01:13;26.00;93.50
13673;DHT22;6909;52.202;9.876;2023-05-15T06:03:41;26.30;1.00
13673;DHT22;6909;52.202;9.876;2023-05-15T06:06:09;25.70;1.00
13673;DHT22;6909;52.202;9.876;2023-05-15T06:08:35;26.20;1.00
13673;DHT22;6909;52.202;9.876;2023-05-15T06:11:02;27.00;1.00
13673;DHT22;6909;52.202;9.876;2023-05-15T06:13:30;27.20;1.00
13673;DHT22;6909;52.202;9.876;2023-05-15T06:15:57;28.00;1.00
13673;DHT22;6909;52.202;9.876;2023-05-15T06:18:23;27.60;1.00
13673;DHT22;6909;52.202;9.876;2023-05-15T06:20:50;27.70;1.00
13673;DHT22;6909;52.202;9.876;2023-05-15T06:23:17;28.20;1.00
13673;DHT22;6909;52.202;9.876;2023-05-15T06:25:44;27.40;99.90
13673;DHT22;6909;52.202;9.876;2023-05-15T06:28:11;27.60;99.90
13673;DHT22;6909;52.202;9.876;2023-05-15T06:30:39;27.30;99.90
13673;DHT22;6909;52.202;9.876;2023-05-15T06:33:05;28.40;99.90
13673;DHT22;6909;52.202;9.876;2023-05-15T06:35:32;28.30;99.90
13673;DHT22;6909;52.202;9.876;2023-05-15T06:37:59;28.30;99.90
13673;DHT22;6909;52.202;9.876;2023-05-15T06:40:26;27.90;99.90
13673;DHT22;6909;52.202;9.876;2023-05-15T06:42:52;27.90;99.90
13673;DHT22;6909;52.202;9.876;2023-05-15T06:45:19;26.70;99.90
13673;DHT22;6909;52.202;9.876;2023-05-15T06:47:47;26.70;99.90
13673;DHT22;6909;52.202;9.876;2023-05-15T06:50:14;27.40;99.90
13673;DHT22;6909;52.202;9.876;2023-05-15T06:52:40;26.80;53.80
13673;DHT22;6909;52.202;9.876;2023-05-15T06:55:08;26.50;13.40
13673;DHT22;6909;52.202;9.876;2023-05-15T06:57:34;27.40;18.40
13673;DHT22;6909;52.202;9.876;2023-05-15T07:00:01;26.80;1.00
13673;DHT22;6909;52.202;9.876;2023-05-15T07:02:29;26.10;1.00
13673;DHT22;6909;52.202;9.876;2023-05-15T07:04:57;24.70;1.00
13673;DHT22;6909;52.202;9.876;2023-05-15T07:07:23;23.20;1.00
13673;DHT22;6909;52.202;9.876;2023-05-15T07:09:50;22.40;1.00
13673;DHT22;6909;52.202;9.876;2023-05-15T07:12:16;21.70;1.00
13673;DHT22;6909;52.202;9.876;2023-05-15T07:14:43;21.20;1.00
13673;DHT22;6909;52.202;9.876;2023-05-15T07:17:10;21.20;1.00
13673;DHT22;6909;52.202;9.876;2023-05-15T07:19:37;20.80;1.00
13673;DHT22;6909;52.202;9.876;2023-05-15T07:22:05;20.20;1.00
13673;DHT22;6909;52.202;9.876;2023-05-15T07:24:32;20.20;1.00
13673;DHT22;6909;52.202;9.876;2023-05-15T07:26:58;19.40;1.00
13673;DHT22;6909;52.202;9.876;2023-05-15T07:29:25;19.10;1.00
13673;DHT22;6909;52.202;9.876;2023-05-15T07:31:52;19.30;1.00
13673;DHT22;6909;52.202;9.876;2023-05-15T07:34:18;19.50;1.00
13673;DHT22;6909;52.202;9.876;2023-05-15T07:36:45;19.60;1.00
13673;DHT22;6909;52.202;9.876;2023-05-15T07:39:13;19.40;1.00
13673;DHT22;6909;52.202;9.876;2023-05-15T07:41:40;19.10;1.00
13673;DHT22;6909;52.202;9.876;2023-05-15T07:44:07;19.60;6.10
13673;DHT22;6909;52.202;9.876;2023-05-15T07:46:33;20.10;18.30
13673;DHT22;6909;52.202;9.876;2023-05-15T07:49:00;20.20;18.70
13673;DHT22;6909;52.202;9.876;2023-05-15T07:51:27;20.70;2.50
13673;DHT22;6909;52.202;9.876;2023-05-15T07:53:54;20.50;1.00
13673;DHT22;6909;52.202;9.876;2023-05-15T07:56:22;20.50;1.00
13673;DHT22;6909;52.202;9.876;2023-05-15T07:58:49;20.20;1.00
13673;DHT22;6909;52.202;9.876;2023-05-15T08:01:15;20.30;1.00
13673;DHT22;6909;52.202;9.876;2023-05-15T08:03:42;20.50;11.50
13673;DHT22;6909;52.202;9.876;2023-05-15T08:06:09;21.50;23.30
13673;DHT22;6909;52.202;9.876;2023-05-15T08:08:35;22.10;15.00
13673;DHT22;6909;52.202;9.876;2023-05-15T08:11:02;22.90;7.10
13673;DHT22;6909;52.202;9.876;2023-05-15T08:13:30;23.70;1.00
13673;DHT22;6909;52.202;9.876;2023-05-15T08:15:57;24.10;1.00
13673;DHT22;6909;52.202;9.876;2023-05-15T08:18:23;23.60;1.00
13673;DHT22;6909;52.202;9.876;2023-05-15T08:20:50;24.00;1.00
13673;DHT22;6909;52.202;9.876;2023-05-15T08:23:17;23.20;1.00
13673;DHT22;6909;52.202;9.876;2023-05-15T08:25:44;23.40;1.00
13673;DHT22;6909;52.202;9.876;2023-05-15T08:28:11;23.70;1.00
13673;DHT22;6909;52.202;9.876;2023-05-15T08:30:39;23.80;1.00
13673;DHT22;6909;52.202;9.876;2023-05-15T08:33:05;24.10;1.00
13673;DHT22;6909;52.202;9.876;2023-05-15T08:35:32;23.90;1.00
13673;DHT22;6909;52.202;9.876;2023-05-15T08:37:59;24.10;1.00
13673;DHT22;6909;52.202;9.876;2023-05-15T08:40:26;23.70;1.00
13673;DHT22;6909;52.202;9.876;2023-05-15T08:42:54;23.60;1.00
13673;DHT22;6909;52.202;9.876;2023-05-15T08:45:21;23.90;1.00
13673;DHT22;6909;52.202;9.876;2023-05-15T08:47:50;23.70;1.00
13673;DHT22;6909;52.202;9.876;2023-05-15T08:50:18;22.90;1.00
13673;DHT22;6909;52.202;9.876;2023-05-15T08:52:45;22.40;1.00
13673;DHT22;6909;52.202;9.876;2023-05-15T08:55:12;21.70;1.00
13673;DHT22;6909;52.202;9.876;2023-05-15T08:57:39;21.40;1.00
13673;DHT22;6909;52.202;9.876;2023-05-15T09:00:07;21.20;1.00
13673;DHT22;6909;52.202;9.876;2023-05-15T09:02:36;20.80;1.00
13673;DHT22;6909;52.202;9.876;2023-05-15T09:05:05;20.80;1.00
13673;DHT22;6909;52.202;9.876;2023-05-15T09:07:33;20.90;1.00
13673;DHT22;6909;52.202;9.876;2023-05-15T09:10:01;21.00;1.00
13673;DHT22;6909;52.202;9.876;2023-05-15T09:12:32;20.80;1.00
13673;DHT22;6909;52.202;9.876;2023-05-15T09:15:09;21.00;1.00
13673;DHT22;6909;52.202;9.876;2023-05-15T09:17:36;21.20;1.00
13673;DHT22;6909;52.202;9.876;2023-05-15T09:20:23;21.50;1.00
13673;DHT22;6909;52.202;9.876;2023-05-15T09:22:51;21.80;1.00
13673;DHT22;6909;52.202;9.876;2023-05-15T09:25:31;21.80;1.00
13673;DHT22;6909;52.202;9.876;2023-05-15T09:27:58;22.10;1.00
13673;DHT22;6909;52.202;9.876;2023-05-15T09:30:26;22.30;1.00
13673;DHT22;6909;52.202;9.876;2023-05-15T09:32:55;22.20;1.00
13673;DHT22;6909;52.202;9.876;2023-05-15T09:35:32;22.10;1.00
13673;DHT22;6909;52.202;9.876;2023-05-15T09:38:00;22.10;1.00
13673;DHT22;6909;52.202;9.876;2023-05-15T09:40:28;22.30;1.00
13673;DHT22;6909;52.202;9.876;2023-05-15T09:42:54;22.50;1.00
13673;DHT22;6909;52.202;9.876;2023-05-15T09:45:22;22.80;1.00
13673;DHT22;6909;52.202;9.876;2023-05-15T09:47:50;22.50;1.00
13673;DHT22;6909;52.202;9.876;2023-05-15T09:50:20;22.50;1.00
13673;DHT22;6909;52.202;9.876;2023-05-15T09:52:48;22.20;1.00
13673;DHT22;6909;52.202;9.876;2023-05-15T09:55:15;22.10;1.00
13673;DHT22;6909;52.202;9.876;2023-05-15T09:57:44;22.40;1.00
13673;DHT22;6909;52.202;9.876;2023-05-15T10:00:11;22.60;1.00
13673;DHT22;6909;52.202;9.876;2023-05-15T10:02:39;22.70;1.00
13673;DHT22;6909;52.202;9.876;2023-05-15T10:05:07;22.50;1.00
13673;DHT22;6909;52.202;9.876;2023-05-15T10:07:35;22.60;1.00
13673;DHT22;6909;52.202;9.876;2023-05-15T10:10:04;22.40;1.00
13673;DHT22;6909;52.202;9.876;2023-05-15T10:12:31;22.30;1.00
13673;DHT22;6909;52.202;9.876;2023-05-15T10:15:02;22.30;1.00
13673;DHT22;6909;52.202;9.876;2023-05-15T10:17:30;22.10;1.00
13673;DHT22;6909;52.202;9.876;2023-05-15T10:19:58;21.90;1.00
13673;DHT22;6909;52.202;9.876;2023-05-15T10:22:28;21.80;1.00
13673;DHT22;6909;52.202;9.876;2023-05-15T10:24:59;21.70;1.00
13673;DHT22;6909;52.202;9.876;2023-05-15T10:27:29;21.70;1.00
13673;DHT22;6909;52.202;9.876;2023-05-15T10:29:57;21.30;1.00
13673;DHT22;6909;52.202;9.876;2023-05-15T10:32:25;21.10;1.00
13673;DHT22;6909;52.202;9.876;2023-05-15T10:34:53;20.70;1.00
13673;DHT22;6909;52.202;9.876;2023-05-15T10:37:20;20.80;1.00
13673;DHT22;6909;52.202;9.876;2023-05-15T10:39:48;20.50;1.00
13673;DHT22;6909;52.202;9.876;2023-05-15T10:42:16;20.40;1.00
13673;DHT22;6909;52.202;9.876;2023-05-15T10:44:44;20.50;70.70
13673;DHT22;6909;52.202;9.876;2023-05-15T10:47:11;20.60;41.30
13673;DHT22;6909;52.202;9.876;2023-05-15T10:49:38;20.60;47.40
13673;DHT22;6909;52.202;9.876;2023-05-15T10:52:05;20.90;41.20
13673;DHT22;6909;52.202;9.876;2023-05-15T10:54:31;20.70;25.20
13673;DHT22;6909;52.202;9.876;2023-05-15T10:56:58;20.60;25.20
13673;DHT22;6909;52.202;9.876;2023-05-15T10:59:32;20.60;43.10
13673;DHT22;6909;52.202;9.876;2023-05-15T11:02:21;20.60;99.90
13673;DHT22;6909;52.202;9.876;2023-05-15T11:04:53;20.80;49.00
13673;DHT22;6909;52.202;9.876;2023-05-15T11:07:21;20.80;52.40
13673;DHT22;6909;52.202;9.876;2023-05-15T11:09:50;20.80;21.90
13673;DHT22;6909;52.202;9.876;2023-05-15T11:12:18;20.90;38.70
13673;DHT22;6909;52.202;9.876;2023-05-15T11:15:18;20.90;13.50
13673;DHT22;6909;52.202;9.876;2023-05-15T11:18:02;21.00;7.20
13673;DHT22;6909;52.202;9.876;2023-05-15T11:20:32;21.10;25.80
13673;DHT22;6909;52.202;9.876;2023-05-15T11:22:59;21.30;82.70
13673;DHT22;6909;52.202;9.876;2023-05-15T11:25:28;21.40;42.40
13673;DHT22;6909;52.202;9.876;2023-05-15T11:27:55;21.40;54.40
13673;DHT22;6909;52.202;9.876;2023-05-15T11:30:33;21.40;9.70
13673;DHT22;6909;52.202;9.876;2023-05-15T11:33:04;21.50;70.60
13673;DHT22;6909;52.202;9.876;2023-05-15T11:35:33;21.50;30.20
13673;DHT22;6909;52.202;9.876;2023-05-15T11:38:03;21.70;32.60
13673;DHT22;6909;52.202;9.876;2023-05-15T11:40:31;21.70;1.00
13673;DHT22;6909;52.202;9.876;2023-05-15T11:43:00;21.80;1.00
13673;DHT22;6909;52.202;9.876;2023-05-15T11:45:30;21.80;1.00
13673;DHT22;6909;52.202;9.876;2023-05-15T11:47:59;21.90;1.00
13673;DHT22;6909;52.202;9.876;2023-05-15T11:50:27;22.20;1.00
13673;DHT22;6909;52.202;9.876;2023-05-15T11:52:55;22.50;1.00
13673;DHT22;6909;52.202;9.876;2023-05-15T11:55:22;22.60;1.00
13673;DHT22;6909;52.202;9.876;2023-05-15T11:57:49;22.80;1.00
13673;DHT22;6909;52.202;9.876;2023-05-15T12:00:16;22.70;1.00
13673;DHT22;6909;52.202;9.876;2023-05-15T12:02:42;22.60;1.00
13673;DHT22;6909;52.202;9.876;2023-05-15T12:05:10;22.10;1.00
13673;DHT22;6909;52.202;9.876;2023-05-15T12:07:39;22.00;1.00
13673;DHT22;6909;52.202;9.876;2023-05-15T12:10:08;21.80;1.00
13673;DHT22;6909;52.202;9.876;2023-05-15T12:12:37;21.90;1.00
13673;DHT22;6909;52.202;9.876;2023-05-15T12:15:06;21.90;1.00
13673;DHT22;6909;52.202;9.876;2023-05-15T12:17:35;21.80;1.00
13673;DHT22;6909;52.202;9.876;2023-05-15T12:20:02;22.10;1.00
13673;DHT22;6909;52.202;9.876;2023-05-15T12:22:35;21.90;1.00
13673;DHT22;6909;52.202;9.876;2023-05-15T12:25:04;21.50;1.00
13673;DHT22;6909;52.202;9.876;2023-05-15T12:27:32;21.00;1.00
13673;DHT22;6909;52.202;9.876;2023-05-15T12:29:59;20.60;1.00
13673;DHT22;6909;52.202;9.876;2023-05-15T12:32:27;20.60;1.00
13673;DHT22;6909;52.202;9.876;2023-05-15T12:34:54;20.70;1.00
13673;DHT22;6909;52.202;9.876;2023-05-15T12:37:20;20.80;1.00
13673;DHT22;6909;52.202;9.876;2023-05-15T12:39:52;21.00;1.00
13673;DHT22;6909;52.202;9.876;2023-05-15T12:42:20;21.10;1.00
13673;DHT22;6909;52.202;9.876;2023-05-15T12:44:49;21.30;1.00
13673;DHT22;6909;52.202;9.876;2023-05-15T12:47:22;21.30;1.00
13673;DHT22;6909;52.202;9.876;2023-05-15T12:49:49;21.40;1.00
13673;DHT22;6909;52.202;9.876;2023-05-15T12:52:15;21.60;1.00
13673;DHT22;6909;52.202;9.876;2023-05-15T12:54:43;21.70;1.00
13673;DHT22;6909;52.202;9.876;2023-05-15T12:57:10;21.70;1.00
13673;DHT22;6909;52.202;9.876;2023-05-15T12:59:39;21.80;1.00
13673;DHT22;6909;52.202;9.876;2023-05-15T13:02:09;21.70;1.00
13673;DHT22;6909;52.202;9.876;2023-05-15T13:04:36;21.90;1.00
13673;DHT22;6909;52.202;9.876;2023-05-15T13:07:03;21.90;1.00
13673;DHT22;6909;52.202;9.876;2023-05-15T13:09:30;22.10;1.00
13673;DHT22;6909;52.202;9.876;2023-05-15T13:11:57;21.80;1.00
13673;DHT22;6909;52.202;9.876;2023-05-15T13:14:27;21.60;1.00
13673;DHT22;6909;52.202;9.876;2023-05-15T13:17:00;21.60;1.00
13673;DHT22;6909;52.202;9.876;2023-05-15T13:19:27;21.90;1.00
13673;DHT22;6909;52.202;9.876;2023-05-15T13:21:54;22.30;1.00
13673;DHT22;6909;52.202;9.876;2023-05-15T13:24:21;22.20;1.00
13673;DHT22;6909;52.202;9.876;2023-05-15T13:26:47;22.10;1.00
13673;DHT22;6909;52.202;9.876;2023-05-15T13:29:14;21.90;1.00
13673;DHT22;6909;52.202;9.876;2023-05-15T13:31:42;21.70;1.00
13673;DHT22;6909;52.202;9.876;2023-05-15T13:34:10;21.90;1.00
13673;DHT22;6909;52.202;9.876;2023-05-15T13:36:36;22.10;1.00
13673;DHT22;6909;52.202;9.876;2023-05-15T13:39:03;22.30;1.00
13673;DHT22;6909;52.202;9.876;2023-05-15T13:41:30;22.30;1.00
13673;DHT22;6909;52.202;9.876;2023-05-15T13:43:57;22.60;1.00
13673;DHT22;6909;52.202;9.876;2023-05-15T13:46:24;22.50;1.00
13673;DHT22;6909;52.202;9.876;2023-05-15T13:48:50;22.50;1.00
13673;DHT22;6909;52.202;9.876;2023-05-15T13:51:18;22.60;1.00
13673;DHT22;6909;52.202;9.876;2023-05-15T13:53:45;22.30;1.00
13673;DHT22;6909;52.202;9.876;2023-05-15T13:56:11;22.20;1.00
13673;DHT22;6909;52.202;9.876;2023-05-15T13:58:38;22.30;1.00
13673;DHT22;6909;52.202;9.876;2023-05-15T14:01:06;22.20;1.00
13673;DHT22;6909;52.202;9.876;2023-05-15T14:03:33;22.00;1.00
13673;DHT22;6909;52.202;9.876;2023-05-15T14:06:00;21.70;1.00
13673;DHT22;6909;52.202;9.876;2023-05-15T14:08:28;21.80;1.00
13673;DHT22;6909;52.202;9.876;2023-05-15T14:10:54;21.70;1.00
13673;DHT22;6909;52.202;9.876;2023-05-15T14:13:21;22.00;1.00
13673;DHT22;6909;52.202;9.876;2023-05-15T14:15:48;22.20;1.00
13673;DHT22;6909;52.202;9.876;2023-05-15T14:18:15;21.80;1.00
13673;DHT22;6909;52.202;9.876;2023-05-15T14:20:42;21.40;1.00
13673;DHT22;6909;52.202;9.876;2023-05-15T14:23:08;21.10;1.00
13673;DHT22;6909;52.202;9.876;2023-05-15T14:25:36;21.00;1.00
13673;DHT22;6909;52.202;9.876;2023-05-15T14:28:03;21.20;1.00
13673;DHT22;6909;52.202;9.876;2023-05-15T14:30:29;21.30;1.00
13673;DHT22;6909;52.202;9.876;2023-05-15T14:32:56;21.30;1.00
13673;DHT22;6909;52.202;9.876;2023-05-15T14:35:24;21.30;1.00
13673;DHT22;6909;52.202;9.876;2023-05-15T14:37:50;21.20;1.00
13673;DHT22;6909;52.202;9.876;2023-05-15T14:40:17;21.20;1.00
13673;DHT22;6909;52.202;9.876;2023-05-15T14:42:45;21.20;1.00
13673;DHT22;6909;52.202;9.876;2023-05-15T14:45:12;21.40;1.00
13673;DHT22;6909;52.202;9.876;2023-05-15T14:47:38;21.20;1.00
13673;DHT22;6909;52.202;9.876;2023-05-15T14:50:06;21.20;1.00
13673;DHT22;6909;52.202;9.876;2023-05-15T14:52:33;21.30;1.00
13673;DHT22;6909;52.202;9.876;2023-05-15T14:55:00;21.30;1.00
13673;DHT22;6909;52.202;9.876;2023-05-15T14:57:27;21.20;1.00
13673;DHT22;6909;52.202;9.876;2023-05-15T14:59:55;21.00;1.00
13673;DHT22;6909;52.202;9.876;2023-05-15T15:02:21;20.90;1.00
13673;DHT22;6909;52.202;9.876;2023-05-15T15:04:48;20.90;1.00
13673;DHT22;6909;52.202;9.876;2023-05-15T15:07:15;20.70;1.00
13673;DHT22;6909;52.202;9.876;2023-05-15T15:09:42;20.50;1.00
13673;DHT22;6909;52.202;9.876;2023-05-15T15:12:08;20.50;1.00
13673;DHT22;6909;52.202;9.876;2023-05-15T15:14:35;20.60;1.00
13673;DHT22;6909;52.202;9.876;2023-05-15T15:17:03;20.50;1.00
13673;DHT22;6909;52.202;9.876;2023-05-15T15:19:30;20.50;1.00
13673;DHT22;6909;52.202;9.876;2023-05-15T15:21:57;20.70;1.00
13673;DHT22;6909;52.202;9.876;2023-05-15T15:24:24;20.70;1.00
13673;DHT22;6909;52.202;9.876;2023-05-15T15:26:51;20.90;1.00
13673;DHT22;6909;52.202;9.876;2023-05-15T15:29:17;20.80;1.00
13673;DHT22;6909;52.202;9.876;2023-05-15T15:31:44;20.80;1.00
13673;DHT22;6909;52.202;9.876;2023-05-15T15:34:12;20.80;1.00
13673;DHT22;6909;52.202;9.876;2023-05-15T15:36:39;21.10;1.00
13673;DHT22;6909;52.202;9.876;2023-05-15T15:39:06;21.10;1.00
13673;DHT22;6909;52.202;9.876;2023-05-15T15:41:36;21.00;1.00
13673;DHT22;6909;52.202;9.876;2023-05-15T15:44:03;20.70;1.00
13673;DHT22;6909;52.202;9.876;2023-05-15T15:46:30;20.60;1.00
13673;DHT22;6909;52.202;9.876;2023-05-15T15:48:57;20.30;1.00
13673;DHT22;6909;52.202;9.876;2023-05-15T15:51:25;20.20;1.00
13673;DHT22;6909;52.202;9.876;2023-05-15T15:53:52;20.00;1.00
13673;DHT22;6909;52.202;9.876;2023-05-15T15:56:19;19.70;1.00
13673;DHT22;6909;52.202;9.876;2023-05-15T15:58:45;19.40;1.00
13673;DHT22;6909;52.202;9.876;2023-05-15T16:01:12;19.30;1.00
13673;DHT22;6909;52.202;9.876;2023-05-15T16:03:39;19.10;1.00